sensor_id;sensor_type;location;lat;lon;timestamp;P1;durP1;ratioP1;P2;durP2;ratioP2
10281;SDS011;5186;59.472;18.048;2023-12-22T00:00:17;0.70;;;0.40;;
10281;SDS011;5186;59.472;18.048;2023-12-22T00:02:43;2.13;;;0.50;;
10281;SDS011;5186;59.472;18.048;2023-12-22T00:05:09;1.20;;;0.67;;
10281;SDS011;5186;59.472;18.048;2023-12-22T00:07:34;1.17;;;0.30;;
10281;SDS011;5186;59.472;18.048;2023-12-22T00:10:00;0.80;;;0.37;;
10281;SDS011;5186;59.472;18.048;2023-12-22T00:12:25;1.80;;;0.40;;
10281;SDS011;5186;59.472;18.048;2023-12-22T00:14:51;0.53;;;0.27;;
10281;SDS011;5186;59.472;18.048;2023-12-22T00:17:17;0.40;;;0.30;;
10281;SDS011;5186;59.472;18.048;2023-12-22T00:19:42;0.23;;;0.20;;
10281;SDS011;5186;59.472;18.048;2023-12-22T00:22:08;0.40;;;0.30;;
10281;SDS011;5186;59.472;18.048;2023-12-22T00:24:33;2.93;;;0.47;;
10281;SDS011;5186;59.472;18.048;2023-12-22T00:26:59;1.73;;;0.30;;
10281;SDS011;5186;59.472;18.048;2023-12-22T00:29:24;1.43;;;0.40;;
10281;SDS011;5186;59.472;18.048;2023-12-22T00:31:50;1.67;;;0.43;;
10281;SDS011;5186;59.472;18.048;2023-12-22T00:34:15;0.40;;;0.30;;
10281;SDS011;5186;59.472;18.048;2023-12-22T00:36:41;0.40;;;0.30;;
10281;SDS011;5186;59.472;18.048;2023-12-22T00:39:07;0.53;;;0.40;;
10281;SDS011;5186;59.472;18.048;2023-12-22T00:41:32;0.80;;;0.20;;
10281;SDS011;5186;59.472;18.048;2023-12-22T00:43:58;0.70;;;0.40;;
10281;SDS011;5186;59.472;18.048;2023-12-22T00:46:23;0.43;;;0.30;;
10281;SDS011;5186;59.472;18.048;2023-12-22T00:48:49;1.80;;;0.50;;
10281;SDS011;5186;59.472;18.048;2023-12-22T00:51:15;0.30;;;0.20;;
10281;SDS011;5186;59.472;18.048;2023-12-22T00:53:41;0.40;;;0.20;;
10281;SDS011;5186;59.472;18.048;2023-12-22T00:56:07;0.50;;;0.30;;
10281;SDS011;5186;59.472;18.048;2023-12-22T00:58:33;0.97;;;0.40;;
10281;SDS011;5186;59.472;18.048;2023-12-22T01:00:58;2.23;;;0.47;;
10281;SDS011;5186;59.472;18.048;2023-12-22T01:03:24;0.83;;;0.30;;
10281;SDS011;5186;59.472;18.048;2023-12-22T01:05:49;1.20;;;0.20;;
10281;SDS011;5186;59.472;18.048;2023-12-22T01:08:15;0.77;;;0.30;;
10281;SDS011;5186;59.472;18.048;2023-12-22T01:10:41;0.53;;;0.20;;
10281;SDS011;5186;59.472;18.048;2023-12-22T01:13:06;0.17;;;0.17;;
10281;SDS011;5186;59.472;18.048;2023-12-22T01:15:32;0.50;;;0.30;;
10281;SDS011;5186;59.472;18.048;2023-12-22T01:17:57;0.63;;;0.30;;
10281;SDS011;5186;59.472;18.048;2023-12-22T01:20:23;1.13;;;0.40;;
10281;SDS011;5186;59.472;18.048;2023-12-22T01:22:49;0.20;;;0.13;;
10281;SDS011;5186;59.472;18.048;2023-12-22T01:25:14;0.50;;;0.30;;
10281;SDS011;5186;59.472;18.048;2023-12-22T01:27:40;1.80;;;0.40;;
10281;SDS011;5186;59.472;18.048;2023-12-22T01:30:06;1.07;;;0.33;;
10281;SDS011;5186;59.472;18.048;2023-12-22T01:32:32;0.60;;;0.20;;
10281;SDS011;5186;59.472;18.048;2023-12-22T01:35:00;1.33;;;0.33;;
10281;SDS011;5186;59.472;18.048;2023-12-22T01:37:29;1.23;;;0.20;;
10281;SDS011;5186;59.472;18.048;2023-12-22T01:39:55;0.57;;;0.13;;
10281;SDS011;5186;59.472;18.048;2023-12-22T01:42:20;0.70;;;0.40;;
10281;SDS011;5186;59.472;18.048;2023-12-22T01:44:46;1.73;;;0.53;;
10281;SDS011;5186;59.472;18.048;2023-12-22T01:47:11;0.80;;;0.37;;
10281;SDS011;5186;59.472;18.048;2023-12-22T01:49:37;0.90;;;0.30;;
10281;SDS011;5186;59.472;18.048;2023-12-22T01:52:03;0.37;;;0.37;;
10281;SDS011;5186;59.472;18.048;2023-12-22T01:54:30;0.43;;;0.33;;
10281;SDS011;5186;59.472;18.048;2023-12-22T01:56:56;1.53;;;0.30;;
10281;SDS011;5186;59.472;18.048;2023-12-22T01:59:22;1.23;;;0.30;;
10281;SDS011;5186;59.472;18.048;2023-12-22T02:01:48;0.30;;;0.30;;
10281;SDS011;5186;59.472;18.048;2023-12-22T02:04:14;1.10;;;0.40;;
10281;SDS011;5186;59.472;18.048;2023-12-22T02:06:40;0.77;;;0.20;;
10281;SDS011;5186;59.472;18.048;2023-12-22T02:09:07;0.20;;;0.20;;
10281;SDS011;5186;59.472;18.048;2023-12-22T02:11:33;0.60;;;0.30;;
10281;SDS011;5186;59.472;18.048;2023-12-22T02:13:58;0.30;;;0.20;;
10281;SDS011;5186;59.472;18.048;2023-12-22T02:19:48;0.77;;;0.40;;
10281;SDS011;5186;59.472;18.048;2023-12-22T02:22:03;0.80;;;0.30;;
10281;SDS011;5186;59.472;18.048;2023-12-22T02:24:33;0.53;;;0.40;;
10281;SDS011;5186;59.472;18.048;2023-12-22T02:27:02;0.87;;;0.30;;
10281;SDS011;5186;59.472;18.048;2023-12-22T02:29:37;0.17;;;0.10;;
10281;SDS011;5186;59.472;18.048;2023-12-22T02:32:07;0.80;;;0.40;;
10281;SDS011;5186;59.472;18.048;2023-12-22T02:34:36;0.40;;;0.17;;
10281;SDS011;5186;59.472;18.048;2023-12-22T02:37:07;0.23;;;0.10;;
10281;SDS011;5186;59.472;18.048;2023-12-22T02:39:34;0.13;;;0.10;;
10281;SDS011;5186;59.472;18.048;2023-12-22T02:42:01;1.07;;;0.40;;
10281;SDS011;5186;59.472;18.048;2023-12-22T02:44:29;0.40;;;0.20;;
10281;SDS011;5186;59.472;18.048;2023-12-22T02:46:55;1.07;;;0.20;;
10281;SDS011;5186;59.472;18.048;2023-12-22T02:49:21;0.40;;;0.20;;
10281;SDS011;5186;59.472;18.048;2023-12-22T02:51:46;0.20;;;0.20;;
10281;SDS011;5186;59.472;18.048;2023-12-22T02:54:12;0.73;;;0.33;;
10281;SDS011;5186;59.472;18.048;2023-12-22T02:56:37;1.53;;;0.30;;
10281;SDS011;5186;59.472;18.048;2023-12-22T02:59:03;0.30;;;0.20;;
10281;SDS011;5186;59.472;18.048;2023-12-22T03:01:28;0.30;;;0.20;;
10281;SDS011;5186;59.472;18.048;2023-12-22T03:03:54;0.27;;;0.20;;
10281;SDS011;5186;59.472;18.048;2023-12-22T03:06:19;0.50;;;0.20;;
10281;SDS011;5186;59.472;18.048;2023-12-22T03:08:45;0.10;;;0.10;;
10281;SDS011;5186;59.472;18.048;2023-12-22T03:11:10;0.40;;;0.20;;
10281;SDS011;5186;59.472;18.048;2023-12-22T03:13:36;0.30;;;0.20;;
10281;SDS011;5186;59.472;18.048;2023-12-22T03:16:02;0.30;;;0.30;;
10281;SDS011;5186;59.472;18.048;2023-12-22T03:18:27;0.40;;;0.30;;
10281;SDS011;5186;59.472;18.048;2023-12-22T03:20:53;0.30;;;0.10;;
10281;SDS011;5186;59.472;18.048;2023-12-22T03:23:18;0.20;;;0.10;;
10281;SDS011;5186;59.472;18.048;2023-12-22T03:25:44;0.27;;;0.17;;
10281;SDS011;5186;59.472;18.048;2023-12-22T03:28:09;0.70;;;0.10;;
10281;SDS011;5186;59.472;18.048;2023-12-22T03:30:35;0.73;;;0.10;;
10281;SDS011;5186;59.472;18.048;2023-12-22T03:33:02;0.20;;;0.20;;
10281;SDS011;5186;59.472;18.048;2023-12-22T03:35:28;0.77;;;0.30;;
10281;SDS011;5186;59.472;18.048;2023-12-22T03:37:54;0.20;;;0.20;;
10281;SDS011;5186;59.472;18.048;2023-12-22T03:40:19;0.40;;;0.23;;
10281;SDS011;5186;59.472;18.048;2023-12-22T03:42:45;0.30;;;0.20;;
10281;SDS011;5186;59.472;18.048;2023-12-22T03:45:10;0.37;;;0.20;;
10281;SDS011;5186;59.472;18.048;2023-12-22T03:47:36;0.30;;;0.20;;
10281;SDS011;5186;59.472;18.048;2023-12-22T03:50:01;0.10;;;0.10;;
10281;SDS011;5186;59.472;18.048;2023-12-22T03:52:27;0.40;;;0.23;;
10281;SDS011;5186;59.472;18.048;2023-12-22T03:54:52;0.20;;;0.20;;
10281;SDS011;5186;59.472;18.048;2023-12-22T03:57:18;0.40;;;0.20;;
10281;SDS011;5186;59.472;18.048;2023-12-22T03:59:43;0.50;;;0.30;;
10281;SDS011;5186;59.472;18.048;2023-12-22T04:02:09;0.60;;;0.40;;
10281;SDS011;5186;59.472;18.048;2023-12-22T04:04:38;0.73;;;0.40;;
10281;SDS011;5186;59.472;18.048;2023-12-22T04:07:04;0.50;;;0.30;;
10281;SDS011;5186;59.472;18.048;2023-12-22T04:09:30;0.60;;;0.40;;
10281;SDS011;5186;59.472;18.048;2023-12-22T04:11:55;0.60;;;0.30;;
10281;SDS011;5186;59.472;18.048;2023-12-22T04:14:21;1.57;;;0.47;;
10281;SDS011;5186;59.472;18.048;2023-12-22T04:16:46;0.90;;;0.50;;
10281;SDS011;5186;59.472;18.048;2023-12-22T04:19:12;0.60;;;0.50;;
10281;SDS011;5186;59.472;18.048;2023-12-22T04:21:38;0.20;;;0.20;;
10281;SDS011;5186;59.472;18.048;2023-12-22T04:24:03;1.53;;;0.53;;
10281;SDS011;5186;59.472;18.048;2023-12-22T04:26:29;1.03;;;0.50;;
10281;SDS011;5186;59.472;18.048;2023-12-22T04:28:55;0.60;;;0.50;;
10281;SDS011;5186;59.472;18.048;2023-12-22T04:31:20;1.03;;;0.57;;
10281;SDS011;5186;59.472;18.048;2023-12-22T04:33:46;0.67;;;0.60;;
10281;SDS011;5186;59.472;18.048;2023-12-22T04:36:11;0.30;;;0.20;;
10281;SDS011;5186;59.472;18.048;2023-12-22T04:38:37;1.10;;;0.50;;
10281;SDS011;5186;59.472;18.048;2023-12-22T04:41:03;1.70;;;0.50;;
10281;SDS011;5186;59.472;18.048;2023-12-22T04:43:28;1.10;;;0.60;;
10281;SDS011;5186;59.472;18.048;2023-12-22T04:45:54;0.50;;;0.40;;
10281;SDS011;5186;59.472;18.048;2023-12-22T04:48:19;1.73;;;0.50;;
10281;SDS011;5186;59.472;18.048;2023-12-22T04:50:45;1.03;;;0.80;;
10281;SDS011;5186;59.472;18.048;2023-12-22T04:53:10;0.90;;;0.70;;
10281;SDS011;5186;59.472;18.048;2023-12-22T04:55:36;1.43;;;0.80;;
10281;SDS011;5186;59.472;18.048;2023-12-22T04:58:01;1.00;;;0.60;;
10281;SDS011;5186;59.472;18.048;2023-12-22T05:00:27;1.27;;;0.70;;
10281;SDS011;5186;59.472;18.048;2023-12-22T05:02:53;1.37;;;0.70;;
10281;SDS011;5186;59.472;18.048;2023-12-22T05:05:18;1.30;;;0.70;;
10281;SDS011;5186;59.472;18.048;2023-12-22T05:07:44;2.13;;;0.87;;
10281;SDS011;5186;59.472;18.048;2023-12-22T05:10:09;1.40;;;0.57;;
10281;SDS011;5186;59.472;18.048;2023-12-22T05:12:35;0.83;;;0.60;;
10281;SDS011;5186;59.472;18.048;2023-12-22T05:15:00;1.50;;;0.80;;
10281;SDS011;5186;59.472;18.048;2023-12-22T05:17:26;3.67;;;1.03;;
10281;SDS011;5186;59.472;18.048;2023-12-22T05:19:51;1.27;;;0.90;;
10281;SDS011;5186;59.472;18.048;2023-12-22T05:22:17;2.50;;;0.90;;
10281;SDS011;5186;59.472;18.048;2023-12-22T05:24:42;1.67;;;0.87;;
10281;SDS011;5186;59.472;18.048;2023-12-22T05:27:08;1.93;;;0.90;;
10281;SDS011;5186;59.472;18.048;2023-12-22T05:29:34;2.10;;;1.10;;
10281;SDS011;5186;59.472;18.048;2023-12-22T05:31:59;2.37;;;1.40;;
10281;SDS011;5186;59.472;18.048;2023-12-22T05:34:25;1.60;;;0.90;;
10281;SDS011;5186;59.472;18.048;2023-12-22T05:36:51;1.07;;;0.80;;
10281;SDS011;5186;59.472;18.048;2023-12-22T05:39:16;2.23;;;0.87;;
10281;SDS011;5186;59.472;18.048;2023-12-22T05:41:42;1.83;;;0.90;;
10281;SDS011;5186;59.472;18.048;2023-12-22T05:44:07;1.40;;;0.87;;
10281;SDS011;5186;59.472;18.048;2023-12-22T05:46:36;2.87;;;1.30;;
10281;SDS011;5186;59.472;18.048;2023-12-22T05:49:05;2.53;;;1.07;;
10281;SDS011;5186;59.472;18.048;2023-12-22T05:51:40;1.53;;;1.03;;
10281;SDS011;5186;59.472;18.048;2023-12-22T05:54:09;1.60;;;1.00;;
10281;SDS011;5186;59.472;18.048;2023-12-22T05:56:35;2.43;;;1.33;;
10281;SDS011;5186;59.472;18.048;2023-12-22T05:59:01;1.80;;;1.30;;
10281;SDS011;5186;59.472;18.048;2023-12-22T06:01:28;3.87;;;1.23;;
10281;SDS011;5186;59.472;18.048;2023-12-22T06:03:53;2.30;;;1.10;;
10281;SDS011;5186;59.472;18.048;2023-12-22T06:06:19;1.70;;;1.20;;
10281;SDS011;5186;59.472;18.048;2023-12-22T06:08:45;3.67;;;1.10;;
10281;SDS011;5186;59.472;18.048;2023-12-22T06:11:11;1.70;;;1.07;;
10281;SDS011;5186;59.472;18.048;2023-12-22T06:13:37;1.37;;;1.03;;
10281;SDS011;5186;59.472;18.048;2023-12-22T06:16:03;2.17;;;1.17;;
10281;SDS011;5186;59.472;18.048;2023-12-22T06:18:29;2.70;;;1.10;;
10281;SDS011;5186;59.472;18.048;2023-12-22T06:20:54;2.57;;;0.80;;
10281;SDS011;5186;59.472;18.048;2023-12-22T06:23:20;1.73;;;1.17;;
10281;SDS011;5186;59.472;18.048;2023-12-22T06:25:45;1.57;;;0.90;;
10281;SDS011;5186;59.472;18.048;2023-12-22T06:28:14;1.30;;;0.87;;
10281;SDS011;5186;59.472;18.048;2023-12-22T06:30:41;3.53;;;1.23;;
10281;SDS011;5186;59.472;18.048;2023-12-22T06:33:08;2.17;;;1.30;;
10281;SDS011;5186;59.472;18.048;2023-12-22T06:35:33;2.27;;;1.30;;
10281;SDS011;5186;59.472;18.048;2023-12-22T06:37:59;1.63;;;0.90;;
10281;SDS011;5186;59.472;18.048;2023-12-22T06:40:28;1.73;;;0.80;;
10281;SDS011;5186;59.472;18.048;2023-12-22T06:42:54;2.27;;;1.10;;
10281;SDS011;5186;59.472;18.048;2023-12-22T06:45:19;1.17;;;0.97;;
10281;SDS011;5186;59.472;18.048;2023-12-22T06:47:45;2.53;;;1.13;;
10281;SDS011;5186;59.472;18.048;2023-12-22T06:50:11;2.57;;;1.00;;
10281;SDS011;5186;59.472;18.048;2023-12-22T06:52:36;1.33;;;0.83;;
10281;SDS011;5186;59.472;18.048;2023-12-22T06:55:02;2.20;;;1.00;;
10281;SDS011;5186;59.472;18.048;2023-12-22T06:57:27;1.77;;;0.80;;
10281;SDS011;5186;59.472;18.048;2023-12-22T06:59:53;1.43;;;0.83;;
10281;SDS011;5186;59.472;18.048;2023-12-22T07:02:19;2.10;;;1.03;;
10281;SDS011;5186;59.472;18.048;2023-12-22T07:05:05;4.00;;;1.07;;
10281;SDS011;5186;59.472;18.048;2023-12-22T07:07:48;1.57;;;0.90;;
10281;SDS011;5186;59.472;18.048;2023-12-22T07:10:15;2.23;;;1.17;;
10281;SDS011;5186;59.472;18.048;2023-12-22T07:12:41;3.20;;;1.07;;
10281;SDS011;5186;59.472;18.048;2023-12-22T07:15:07;2.53;;;1.10;;
10281;SDS011;5186;59.472;18.048;2023-12-22T07:17:33;2.80;;;0.93;;
10281;SDS011;5186;59.472;18.048;2023-12-22T07:19:59;1.00;;;0.70;;
10281;SDS011;5186;59.472;18.048;2023-12-22T07:22:24;1.33;;;1.10;;
10281;SDS011;5186;59.472;18.048;2023-12-22T07:24:50;1.47;;;0.90;;
10281;SDS011;5186;59.472;18.048;2023-12-22T07:27:17;1.73;;;1.23;;
10281;SDS011;5186;59.472;18.048;2023-12-22T07:29:43;3.10;;;0.97;;
10281;SDS011;5186;59.472;18.048;2023-12-22T07:32:09;1.93;;;1.20;;
10281;SDS011;5186;59.472;18.048;2023-12-22T07:34:34;2.13;;;1.00;;
10281;SDS011;5186;59.472;18.048;2023-12-22T07:37:00;1.33;;;0.97;;
10281;SDS011;5186;59.472;18.048;2023-12-22T07:39:26;1.87;;;1.10;;
10281;SDS011;5186;59.472;18.048;2023-12-22T07:41:51;1.80;;;0.93;;
10281;SDS011;5186;59.472;18.048;2023-12-22T07:44:17;2.47;;;1.27;;
10281;SDS011;5186;59.472;18.048;2023-12-22T07:46:42;2.97;;;1.50;;
10281;SDS011;5186;59.472;18.048;2023-12-22T07:49:08;1.90;;;1.20;;
10281;SDS011;5186;59.472;18.048;2023-12-22T07:51:34;2.00;;;1.00;;
10281;SDS011;5186;59.472;18.048;2023-12-22T07:53:59;1.23;;;0.97;;
10281;SDS011;5186;59.472;18.048;2023-12-22T07:56:25;2.20;;;1.10;;
10281;SDS011;5186;59.472;18.048;2023-12-22T07:58:50;1.03;;;0.83;;
10281;SDS011;5186;59.472;18.048;2023-12-22T08:01:16;2.60;;;1.47;;
10281;SDS011;5186;59.472;18.048;2023-12-22T08:03:41;4.17;;;1.20;;
10281;SDS011;5186;59.472;18.048;2023-12-22T08:06:07;2.13;;;1.20;;
10281;SDS011;5186;59.472;18.048;2023-12-22T08:08:33;2.13;;;1.20;;
10281;SDS011;5186;59.472;18.048;2023-12-22T08:10:59;2.93;;;1.57;;
10281;SDS011;5186;59.472;18.048;2023-12-22T08:13:25;2.37;;;1.40;;
10281;SDS011;5186;59.472;18.048;2023-12-22T08:15:50;2.93;;;1.60;;
10281;SDS011;5186;59.472;18.048;2023-12-22T08:18:16;2.60;;;1.50;;
10281;SDS011;5186;59.472;18.048;2023-12-22T08:20:41;2.63;;;1.20;;
10281;SDS011;5186;59.472;18.048;2023-12-22T08:23:08;3.77;;;1.70;;
10281;SDS011;5186;59.472;18.048;2023-12-22T08:25:33;3.13;;;1.53;;
10281;SDS011;5186;59.472;18.048;2023-12-22T08:27:59;2.20;;;1.33;;
10281;SDS011;5186;59.472;18.048;2023-12-22T08:30:24;2.70;;;1.60;;
10281;SDS011;5186;59.472;18.048;2023-12-22T08:32:50;3.07;;;1.80;;
10281;SDS011;5186;59.472;18.048;2023-12-22T08:35:16;2.43;;;1.57;;
10281;SDS011;5186;59.472;18.048;2023-12-22T08:37:41;3.30;;;1.57;;
10281;SDS011;5186;59.472;18.048;2023-12-22T08:40:07;2.10;;;1.50;;
10281;SDS011;5186;59.472;18.048;2023-12-22T08:42:33;6.90;;;1.80;;
10281;SDS011;5186;59.472;18.048;2023-12-22T08:44:59;2.47;;;1.50;;
10281;SDS011;5186;59.472;18.048;2023-12-22T08:47:24;2.33;;;1.70;;
10281;SDS011;5186;59.472;18.048;2023-12-22T08:49:50;2.60;;;1.40;;
10281;SDS011;5186;59.472;18.048;2023-12-22T08:52:16;3.50;;;2.03;;
10281;SDS011;5186;59.472;18.048;2023-12-22T08:54:41;2.13;;;1.20;;
10281;SDS011;5186;59.472;18.048;2023-12-22T08:57:07;4.30;;;1.60;;
10281;SDS011;5186;59.472;18.048;2023-12-22T08:59:34;3.03;;;1.70;;
10281;SDS011;5186;59.472;18.048;2023-12-22T09:01:59;3.87;;;1.80;;
10281;SDS011;5186;59.472;18.048;2023-12-22T09:04:25;4.33;;;1.53;;
10281;SDS011;5186;59.472;18.048;2023-12-22T09:06:50;2.40;;;1.57;;
10281;SDS011;5186;59.472;18.048;2023-12-22T09:09:16;2.90;;;1.43;;
10281;SDS011;5186;59.472;18.048;2023-12-22T09:11:42;2.93;;;1.70;;
10281;SDS011;5186;59.472;18.048;2023-12-22T09:14:08;2.90;;;1.93;;
10281;SDS011;5186;59.472;18.048;2023-12-22T09:16:36;4.10;;;1.90;;
10281;SDS011;5186;59.472;18.048;2023-12-22T09:19:02;2.60;;;1.60;;
10281;SDS011;5186;59.472;18.048;2023-12-22T09:21:28;4.53;;;1.93;;
10281;SDS011;5186;59.472;18.048;2023-12-22T09:23:54;4.67;;;1.90;;
10281;SDS011;5186;59.472;18.048;2023-12-22T09:26:19;4.03;;;1.83;;
10281;SDS011;5186;59.472;18.048;2023-12-22T09:28:45;4.17;;;1.70;;
10281;SDS011;5186;59.472;18.048;2023-12-22T09:31:11;2.87;;;1.73;;
10281;SDS011;5186;59.472;18.048;2023-12-22T09:33:43;3.33;;;1.67;;
10281;SDS011;5186;59.472;18.048;2023-12-22T09:36:08;3.63;;;1.80;;
10281;SDS011;5186;59.472;18.048;2023-12-22T09:38:35;3.70;;;1.70;;
10281;SDS011;5186;59.472;18.048;2023-12-22T09:41:01;2.57;;;1.77;;
10281;SDS011;5186;59.472;18.048;2023-12-22T09:43:27;3.10;;;1.80;;
10281;SDS011;5186;59.472;18.048;2023-12-22T09:45:53;3.70;;;1.87;;
10281;SDS011;5186;59.472;18.048;2023-12-22T09:48:22;3.53;;;1.97;;
10281;SDS011;5186;59.472;18.048;2023-12-22T09:50:52;4.77;;;2.10;;
10281;SDS011;5186;59.472;18.048;2023-12-22T09:53:18;5.13;;;1.97;;
10281;SDS011;5186;59.472;18.048;2023-12-22T09:55:45;3.83;;;1.70;;
10281;SDS011;5186;59.472;18.048;2023-12-22T09:58:12;4.27;;;2.17;;
10281;SDS011;5186;59.472;18.048;2023-12-22T10:00:41;3.83;;;2.20;;
10281;SDS011;5186;59.472;18.048;2023-12-22T10:03:09;4.30;;;2.53;;
10281;SDS011;5186;59.472;18.048;2023-12-22T10:05:37;4.30;;;2.10;;
10281;SDS011;5186;59.472;18.048;2023-12-22T10:08:04;3.97;;;1.80;;
10281;SDS011;5186;59.472;18.048;2023-12-22T10:10:30;6.17;;;2.57;;
10281;SDS011;5186;59.472;18.048;2023-12-22T10:12:58;3.43;;;1.83;;
10281;SDS011;5186;59.472;18.048;2023-12-22T10:15:24;5.80;;;2.77;;
10281;SDS011;5186;59.472;18.048;2023-12-22T10:17:54;5.67;;;2.27;;
10281;SDS011;5186;59.472;18.048;2023-12-22T10:20:20;4.83;;;2.00;;
10281;SDS011;5186;59.472;18.048;2023-12-22T10:22:46;6.03;;;2.10;;
10281;SDS011;5186;59.472;18.048;2023-12-22T10:25:14;3.70;;;2.17;;
10281;SDS011;5186;59.472;18.048;2023-12-22T10:27:42;4.83;;;2.40;;
10281;SDS011;5186;59.472;18.048;2023-12-22T10:30:08;5.57;;;2.20;;
10281;SDS011;5186;59.472;18.048;2023-12-22T10:32:36;5.43;;;2.53;;
10281;SDS011;5186;59.472;18.048;2023-12-22T10:35:08;3.07;;;2.03;;
10281;SDS011;5186;59.472;18.048;2023-12-22T10:37:34;3.53;;;2.40;;
10281;SDS011;5186;59.472;18.048;2023-12-22T10:39:59;5.20;;;2.40;;
10281;SDS011;5186;59.472;18.048;2023-12-22T10:42:25;4.17;;;2.33;;
10281;SDS011;5186;59.472;18.048;2023-12-22T10:44:51;3.83;;;2.47;;
10281;SDS011;5186;59.472;18.048;2023-12-22T10:47:18;4.53;;;2.13;;
10281;SDS011;5186;59.472;18.048;2023-12-22T10:49:46;5.07;;;2.40;;
10281;SDS011;5186;59.472;18.048;2023-12-22T10:52:17;5.03;;;2.23;;
10281;SDS011;5186;59.472;18.048;2023-12-22T10:54:44;4.27;;;2.30;;
10281;SDS011;5186;59.472;18.048;2023-12-22T10:57:10;3.87;;;2.30;;
10281;SDS011;5186;59.472;18.048;2023-12-22T10:59:37;4.60;;;2.53;;
10281;SDS011;5186;59.472;18.048;2023-12-22T11:02:10;4.80;;;2.73;;
10281;SDS011;5186;59.472;18.048;2023-12-22T11:04:41;4.57;;;2.53;;
10281;SDS011;5186;59.472;18.048;2023-12-22T11:07:11;5.17;;;2.70;;
10281;SDS011;5186;59.472;18.048;2023-12-22T11:09:38;7.27;;;2.73;;
10281;SDS011;5186;59.472;18.048;2023-12-22T11:12:09;5.70;;;2.80;;
10281;SDS011;5186;59.472;18.048;2023-12-22T11:14:35;6.23;;;2.80;;
10281;SDS011;5186;59.472;18.048;2023-12-22T11:17:02;5.00;;;2.93;;
10281;SDS011;5186;59.472;18.048;2023-12-22T11:19:30;6.47;;;2.80;;
10281;SDS011;5186;59.472;18.048;2023-12-22T11:21:58;5.37;;;2.77;;
10281;SDS011;5186;59.472;18.048;2023-12-22T11:24:25;4.63;;;2.60;;
10281;SDS011;5186;59.472;18.048;2023-12-22T11:26:54;3.70;;;1.93;;
10281;SDS011;5186;59.472;18.048;2023-12-22T11:29:24;6.90;;;3.37;;
10281;SDS011;5186;59.472;18.048;2023-12-22T11:31:51;4.50;;;2.37;;
10281;SDS011;5186;59.472;18.048;2023-12-22T11:34:20;6.07;;;3.30;;
10281;SDS011;5186;59.472;18.048;2023-12-22T11:36:48;6.93;;;2.80;;
10281;SDS011;5186;59.472;18.048;2023-12-22T11:39:15;5.30;;;2.80;;
10281;SDS011;5186;59.472;18.048;2023-12-22T11:41:40;7.47;;;3.27;;
10281;SDS011;5186;59.472;18.048;2023-12-22T11:44:07;6.47;;;3.03;;
10281;SDS011;5186;59.472;18.048;2023-12-22T11:46:34;5.00;;;3.00;;
10281;SDS011;5186;59.472;18.048;2023-12-22T11:48:59;5.53;;;3.03;;
10281;SDS011;5186;59.472;18.048;2023-12-22T11:51:25;4.73;;;3.10;;
10281;SDS011;5186;59.472;18.048;2023-12-22T11:53:57;6.03;;;3.10;;
10281;SDS011;5186;59.472;18.048;2023-12-22T11:56:22;4.70;;;2.63;;
10281;SDS011;5186;59.472;18.048;2023-12-22T11:58:51;5.47;;;2.60;;
10281;SDS011;5186;59.472;18.048;2023-12-22T12:01:19;6.10;;;3.03;;
10281;SDS011;5186;59.472;18.048;2023-12-22T12:03:51;5.70;;;3.43;;
10281;SDS011;5186;59.472;18.048;2023-12-22T12:08:52;4.63;;;2.50;;
10281;SDS011;5186;59.472;18.048;2023-12-22T12:11:19;4.67;;;2.67;;
10281;SDS011;5186;59.472;18.048;2023-12-22T12:13:45;5.10;;;2.70;;
10281;SDS011;5186;59.472;18.048;2023-12-22T12:16:12;4.47;;;2.50;;
10281;SDS011;5186;59.472;18.048;2023-12-22T12:18:46;5.80;;;2.77;;
10281;SDS011;5186;59.472;18.048;2023-12-22T12:21:12;6.13;;;2.70;;
10281;SDS011;5186;59.472;18.048;2023-12-22T12:23:38;4.70;;;2.47;;
10281;SDS011;5186;59.472;18.048;2023-12-22T12:26:06;5.47;;;2.80;;
10281;SDS011;5186;59.472;18.048;2023-12-22T12:28:33;4.07;;;2.03;;
10281;SDS011;5186;59.472;18.048;2023-12-22T12:31:04;4.20;;;2.03;;
10281;SDS011;5186;59.472;18.048;2023-12-22T12:33:31;4.63;;;2.63;;
10281;SDS011;5186;59.472;18.048;2023-12-22T12:35:57;4.80;;;2.50;;
10281;SDS011;5186;59.472;18.048;2023-12-22T12:38:51;3.60;;;2.30;;
10281;SDS011;5186;59.472;18.048;2023-12-22T12:41:17;4.80;;;2.50;;
10281;SDS011;5186;59.472;18.048;2023-12-22T12:43:53;4.33;;;2.47;;
10281;SDS011;5186;59.472;18.048;2023-12-22T12:46:21;5.53;;;2.07;;
10281;SDS011;5186;59.472;18.048;2023-12-22T12:48:47;4.63;;;2.30;;
10281;SDS011;5186;59.472;18.048;2023-12-22T12:51:12;5.27;;;2.40;;
10281;SDS011;5186;59.472;18.048;2023-12-22T12:53:38;4.17;;;2.37;;
10281;SDS011;5186;59.472;18.048;2023-12-22T12:56:04;4.87;;;2.40;;
10281;SDS011;5186;59.472;18.048;2023-12-22T12:58:30;3.90;;;2.10;;
10281;SDS011;5186;59.472;18.048;2023-12-22T13:01:07;5.47;;;2.10;;
10281;SDS011;5186;59.472;18.048;2023-12-22T13:06:19;4.47;;;2.40;;
10281;SDS011;5186;59.472;18.048;2023-12-22T13:08:51;3.90;;;2.20;;
10281;SDS011;5186;59.472;18.048;2023-12-22T13:11:21;4.80;;;2.30;;
10281;SDS011;5186;59.472;18.048;2023-12-22T13:13:47;3.27;;;2.27;;
10281;SDS011;5186;59.472;18.048;2023-12-22T13:16:17;3.90;;;2.33;;
10281;SDS011;5186;59.472;18.048;2023-12-22T13:18:44;3.60;;;2.17;;
10281;SDS011;5186;59.472;18.048;2023-12-22T13:21:10;4.23;;;2.20;;
10281;SDS011;5186;59.472;18.048;2023-12-22T13:23:35;4.87;;;2.37;;
10281;SDS011;5186;59.472;18.048;2023-12-22T13:26:01;4.10;;;2.30;;
10281;SDS011;5186;59.472;18.048;2023-12-22T13:28:27;4.80;;;2.40;;
10281;SDS011;5186;59.472;18.048;2023-12-22T13:30:53;4.87;;;2.40;;
10281;SDS011;5186;59.472;18.048;2023-12-22T13:33:19;4.83;;;2.10;;
10281;SDS011;5186;59.472;18.048;2023-12-22T13:35:45;3.90;;;2.10;;
10281;SDS011;5186;59.472;18.048;2023-12-22T13:38:11;4.83;;;2.47;;
10281;SDS011;5186;59.472;18.048;2023-12-22T13:40:37;4.30;;;1.90;;
10281;SDS011;5186;59.472;18.048;2023-12-22T13:43:03;3.03;;;1.97;;
10281;SDS011;5186;59.472;18.048;2023-12-22T13:45:29;2.37;;;1.67;;
10281;SDS011;5186;59.472;18.048;2023-12-22T13:47:56;3.37;;;2.00;;
10281;SDS011;5186;59.472;18.048;2023-12-22T13:50:22;3.37;;;2.10;;
10281;SDS011;5186;59.472;18.048;2023-12-22T13:52:49;3.73;;;2.27;;
10281;SDS011;5186;59.472;18.048;2023-12-22T13:55:16;3.33;;;2.00;;
10281;SDS011;5186;59.472;18.048;2023-12-22T13:57:43;3.73;;;2.10;;
10281;SDS011;5186;59.472;18.048;2023-12-22T14:02:47;5.23;;;2.20;;
10281;SDS011;5186;59.472;18.048;2023-12-22T14:05:14;3.77;;;1.87;;
10281;SDS011;5186;59.472;18.048;2023-12-22T14:07:40;4.20;;;1.87;;
10281;SDS011;5186;59.472;18.048;2023-12-22T14:10:06;4.30;;;2.30;;
10281;SDS011;5186;59.472;18.048;2023-12-22T14:12:32;2.57;;;1.60;;
10281;SDS011;5186;59.472;18.048;2023-12-22T14:14:58;4.53;;;2.40;;
10281;SDS011;5186;59.472;18.048;2023-12-22T14:17:23;3.23;;;2.10;;
10281;SDS011;5186;59.472;18.048;2023-12-22T14:19:49;2.63;;;1.87;;
10281;SDS011;5186;59.472;18.048;2023-12-22T14:22:15;3.53;;;1.80;;
10281;SDS011;5186;59.472;18.048;2023-12-22T14:24:40;4.47;;;1.77;;
10281;SDS011;5186;59.472;18.048;2023-12-22T14:27:06;3.03;;;1.90;;
10281;SDS011;5186;59.472;18.048;2023-12-22T14:29:31;3.37;;;1.77;;
10281;SDS011;5186;59.472;18.048;2023-12-22T14:31:58;3.67;;;1.70;;
10281;SDS011;5186;59.472;18.048;2023-12-22T14:34:23;4.10;;;1.63;;
10281;SDS011;5186;59.472;18.048;2023-12-22T14:36:49;3.60;;;1.90;;
10281;SDS011;5186;59.472;18.048;2023-12-22T14:39:15;4.33;;;1.83;;
10281;SDS011;5186;59.472;18.048;2023-12-22T14:41:40;2.93;;;1.70;;
10281;SDS011;5186;59.472;18.048;2023-12-22T14:44:09;3.13;;;2.00;;
10281;SDS011;5186;59.472;18.048;2023-12-22T14:46:43;2.90;;;1.77;;
10281;SDS011;5186;59.472;18.048;2023-12-22T14:49:10;2.93;;;2.03;;
10281;SDS011;5186;59.472;18.048;2023-12-22T14:51:37;3.53;;;1.90;;
10281;SDS011;5186;59.472;18.048;2023-12-22T14:54:07;3.43;;;1.83;;